CYZF

Yellowknife Airport

Yellowknife, Northwest Territories, Canada
METAR CYZF 260400Z 36006KT 15SM BKN012 BKN060 BKN240 09/06 A2964 RMK SC5SC1CI1 SC TR CI TR SLP047
Observed Flight Rules
May-26 @ 04:00 UTC (26 minutes ago) Marginal Visual Flight Rules
Wind Visibility Clouds
360° at 6 knots 15 miles
  • Broken at 1,200' AGL
  • Broken at 6,000' AGL
  • Broken at 24,000' AGL
Temperatures Readings
Current 9°C / 48°F
Dewpoint 6°C / 43°F
Humidity 82%
Altimeter 29.64" Hg
Pressure 1004.7 hPa
Elevation 206
METAR CYZF 260400Z 36006KT 15SM BKN012 BKN060 BKN240 09/06 A2964 RMK SC5SC1CI1 SC TR CI TR SLP047
Observed Flight Rules
May-26 @ 04:00 UTC
(26 minutes ago)
MVFR
Wind Visibility
360° at 6 knots 15 miles
Clouds
  • Broken at 1,200' AGL
  • Broken at 6,000' AGL
  • Broken at 24,000' AGL
Temperature Dewpoint
9°C / 48°F 6°C / 43°F
Humidity Altimeter Pressure
82% 29.64" Hg 1004.7 hPa